createdAt,value
2022-10-15T00:02:54.057Z,6.84
2022-10-15T00:07:57.515Z,6.94
2022-10-15T00:18:05.882Z,6.94
2022-10-15T00:23:08.957Z,6.94
2022-10-15T00:28:12.280Z,6.98
2022-10-15T00:33:17.006Z,7.02
2022-10-15T00:38:20.289Z,7.11
2022-10-15T00:43:41.627Z,6.98
2022-10-15T00:48:49.884Z,6.90
2022-10-15T00:53:53.917Z,6.96
2022-10-15T00:58:58.458Z,6.99
2022-10-15T01:04:05.747Z,7.06
2022-10-15T01:09:09.402Z,7.09
2022-10-15T01:14:27.378Z,7.04
2022-10-15T01:20:02.967Z,6.99
2022-10-15T01:25:24.521Z,7.04
2022-10-15T01:30:36.960Z,7.03
2022-10-15T01:35:48.006Z,6.98
2022-10-15T01:40:56.706Z,6.94
2022-10-15T01:46:07.014Z,7.02
2022-10-15T01:51:13.527Z,7.16
2022-10-15T01:56:21.426Z,7.22
2022-10-15T02:01:26.484Z,7.19
2022-10-15T02:06:36.241Z,7.13
2022-10-15T02:11:47.103Z,7.03
2022-10-15T02:16:59.565Z,6.97
2022-10-15T02:22:07.911Z,6.97
2022-10-15T02:27:14.409Z,6.95
2022-10-15T02:32:21.969Z,6.93
2022-10-15T02:37:28.929Z,7.08
2022-10-15T02:42:32.517Z,7.06
2022-10-15T02:47:37.238Z,7.10
2022-10-15T02:52:40.582Z,7.07
2022-10-15T02:57:43.887Z,7.15
2022-10-15T03:02:48.674Z,7.22
2022-10-15T03:07:51.894Z,7.26
2022-10-15T03:12:55.229Z,7.17
2022-10-15T03:18:00.018Z,7.12
2022-10-15T03:23:03.283Z,7.02
2022-10-15T03:28:06.668Z,6.98
2022-10-15T03:33:12.144Z,6.89
2022-10-15T03:38:15.592Z,6.92
2022-10-15T03:43:18.974Z,6.88
2022-10-15T03:48:23.979Z,7.00
2022-10-15T03:53:27.389Z,6.93
2022-10-15T03:58:30.726Z,6.94
2022-10-15T04:03:35.583Z,6.95
2022-10-15T04:08:38.688Z,6.96
2022-10-15T04:13:42.060Z,7.03
2022-10-15T04:18:46.745Z,6.96
2022-10-15T04:23:50.084Z,7.04
2022-10-15T04:28:53.512Z,7.10
2022-10-15T04:33:58.366Z,7.12
2022-10-15T04:39:02.152Z,7.21
2022-10-15T04:44:05.857Z,7.21
2022-10-15T04:49:10.628Z,7.17
2022-10-15T04:54:14.068Z,7.07
2022-10-15T04:59:17.392Z,7.12
2022-10-15T05:04:22.145Z,7.17
2022-10-15T05:09:25.570Z,7.27
2022-10-15T05:14:28.890Z,7.36
2022-10-15T05:19:33.607Z,7.28
2022-10-15T05:24:37.035Z,7.29
2022-10-15T05:29:40.384Z,7.35
2022-10-15T05:34:45.064Z,7.32
2022-10-15T05:39:49.060Z,7.26
2022-10-15T05:44:52.376Z,7.30
2022-10-15T05:49:57.352Z,7.47
2022-10-15T05:55:00.458Z,7.65
2022-10-15T06:00:04.031Z,7.70
2022-10-15T06:05:09.167Z,7.81
2022-10-15T06:10:12.649Z,7.95
2022-10-15T06:15:16.964Z,7.97
2022-10-15T06:20:22.441Z,8.15
2022-10-15T06:25:25.890Z,8.01
2022-10-15T06:30:30.106Z,8.32
2022-10-15T06:35:35.857Z,8.59
2022-10-15T06:40:39.604Z,8.76
2022-10-15T06:45:43.253Z,8.92
2022-10-15T06:50:48.055Z,8.83
2022-10-15T06:55:51.387Z,8.69
2022-10-15T07:00:54.866Z,8.77
2022-10-15T07:06:03.273Z,8.98
2022-10-15T07:11:08.853Z,9.03
2022-10-15T07:16:14.103Z,8.97
2022-10-15T07:21:18.896Z,8.95
2022-10-15T07:26:21.941Z,8.80
2022-10-15T07:31:25.606Z,9.04
2022-10-15T07:36:30.535Z,9.01
2022-10-15T07:41:33.575Z,9.09
2022-10-15T07:46:36.992Z,9.15
2022-10-15T07:51:41.703Z,9.37
2022-10-15T07:56:45.041Z,9.67
2022-10-15T08:01:50.623Z,9.69
2022-10-15T08:06:55.862Z,10.04
2022-10-15T08:11:59.280Z,10.24
2022-10-15T08:17:03.436Z,10.12
2022-10-15T08:22:08.194Z,10.23
2022-10-15T08:27:11.287Z,10.17
2022-10-15T08:32:14.738Z,9.91
2022-10-15T08:37:19.625Z,9.79
2022-10-15T08:42:26.616Z,9.88
2022-10-15T08:47:35.872Z,10.11
2022-10-15T08:52:44.364Z,10.11
2022-10-15T08:57:54.473Z,10.12
2022-10-15T09:03:04.235Z,10.60
2022-10-15T09:08:21.861Z,10.76
2022-10-15T09:13:29.209Z,10.66
2022-10-15T09:18:35.145Z,10.78
2022-10-15T09:23:41.544Z,10.97
2022-10-15T09:28:53.469Z,11.16
2022-10-15T09:34:03.143Z,11.56
2022-10-15T09:39:32.065Z,12.13
2022-10-15T09:44:46.359Z,12.38
2022-10-15T09:49:49.817Z,12.23
2022-10-15T09:55:04.461Z,11.47
2022-10-15T10:00:11.861Z,11.55
2022-10-15T10:05:29.292Z,11.66
2022-10-15T10:10:35.518Z,11.61
2022-10-15T10:15:43.249Z,11.81
2022-10-15T10:20:54.958Z,12.12
2022-10-15T10:26:00.634Z,12.80
2022-10-15T10:31:07.449Z,12.70
2022-10-15T10:36:22.481Z,12.57
2022-10-15T10:41:51.057Z,12.82
2022-10-15T10:47:13.463Z,12.79
2022-10-15T10:52:26.698Z,12.82
2022-10-15T10:57:41.906Z,12.99
2022-10-15T11:02:45.297Z,13.15
2022-10-15T11:07:56.651Z,13.39
2022-10-15T11:13:13.955Z,13.40
2022-10-15T11:18:38.598Z,13.35
2022-10-15T11:23:56.652Z,13.68
2022-10-15T11:29:12.858Z,14.11
2022-10-15T11:34:31.105Z,14.28
2022-10-15T11:39:49.723Z,13.80
2022-10-15T11:45:26.180Z,12.98
2022-10-15T11:50:34.242Z,13.00
2022-10-15T11:55:42.908Z,13.07
2022-10-15T12:00:52.320Z,13.26
2022-10-15T12:06:02.047Z,12.88
2022-10-15T12:11:16.915Z,12.81
2022-10-15T12:16:26.914Z,12.73
2022-10-15T12:21:39.669Z,12.80
2022-10-15T12:26:43.227Z,12.78
2022-10-15T12:31:55.967Z,12.79
2022-10-15T12:37:04.950Z,12.81
2022-10-15T12:42:23.056Z,12.83
2022-10-15T12:47:49.261Z,12.78
2022-10-15T12:52:58.726Z,12.61
2022-10-15T12:58:08.075Z,12.49
2022-10-15T13:03:28.810Z,12.32
2022-10-15T13:08:32.790Z,12.32
2022-10-15T13:13:36.732Z,12.19
2022-10-15T13:18:44.361Z,11.93
2022-10-15T13:23:48.878Z,11.69
2022-10-15T13:28:55.211Z,11.48
2022-10-15T13:34:05.637Z,11.31
2022-10-15T13:39:24.464Z,11.22
2022-10-15T13:44:28.413Z,11.01
2022-10-15T13:49:33.527Z,10.86
2022-10-15T13:54:37.656Z,10.69
2022-10-15T13:59:46.940Z,10.59
2022-10-15T14:04:51.696Z,10.47
2022-10-15T14:09:55.660Z,10.30
2022-10-15T14:15:38.156Z,10.09
2022-10-15T14:20:47.704Z,9.96
2022-10-15T14:25:59.394Z,9.78
2022-10-15T14:31:04.218Z,9.58
2022-10-15T14:36:14.229Z,9.42
2022-10-15T14:41:26.618Z,9.33
2022-10-15T14:46:41.048Z,9.18
2022-10-15T14:51:47.111Z,9.05
2022-10-15T14:56:52.798Z,8.92
2022-10-15T15:02:02.581Z,8.75
2022-10-15T15:07:21.508Z,8.61
2022-10-15T15:12:27.987Z,8.41
2022-10-15T15:17:32.779Z,8.26
2022-10-15T15:22:38.470Z,8.12
2022-10-15T15:27:42.711Z,8.01
2022-10-15T15:32:46.173Z,7.91
2022-10-15T15:37:51.567Z,7.81
2022-10-15T15:42:56.639Z,7.71
2022-10-15T15:48:04.218Z,7.60
2022-10-15T15:53:10.078Z,7.61
2022-10-15T15:58:14.099Z,7.55
2022-10-15T16:03:17.522Z,7.48
2022-10-15T16:08:22.998Z,7.41
2022-10-15T16:13:26.438Z,7.34
2022-10-15T16:18:30.733Z,7.29
2022-10-15T16:23:35.526Z,7.26
2022-10-15T16:28:39.592Z,7.20
2022-10-15T16:33:43.170Z,7.15
2022-10-15T16:38:49.622Z,7.08
2022-10-15T16:43:52.938Z,7.07
2022-10-15T16:48:58.642Z,7.06
2022-10-15T16:54:03.526Z,7.00
2022-10-15T16:59:07.342Z,6.93
2022-10-15T17:04:10.939Z,6.79
2022-10-15T17:09:16.811Z,6.76
2022-10-15T17:14:20.750Z,6.77
2022-10-15T17:19:30.404Z,6.74
2022-10-15T17:24:38.200Z,6.71
2022-10-15T17:29:42.777Z,6.72
2022-10-15T17:34:46.188Z,6.70
2022-10-15T17:39:52.791Z,6.65
2022-10-15T17:44:56.167Z,6.62
2022-10-15T17:50:00.366Z,6.61
2022-10-15T17:55:05.655Z,6.60
2022-10-15T18:00:12.393Z,6.59
2022-10-15T18:10:27.324Z,6.48
2022-10-15T18:15:35.187Z,6.41
2022-10-15T18:20:43.210Z,6.29
2022-10-15T18:25:49.052Z,6.25
2022-10-15T18:30:53.204Z,6.23
2022-10-15T18:35:57.320Z,6.12
2022-10-15T18:41:02.768Z,6.04
2022-10-15T18:46:07.107Z,6.00
2022-10-15T18:51:11.254Z,5.99
2022-10-15T18:56:15.968Z,6.02
2022-10-15T19:01:27.477Z,6.01
2022-10-15T19:06:35.162Z,6.02
2022-10-15T19:11:41.899Z,6.09
2022-10-15T19:16:46.529Z,6.09
2022-10-15T19:21:51.586Z,6.10
2022-10-15T19:26:57.310Z,6.09
2022-10-15T19:32:04.495Z,6.01
2022-10-15T19:37:08.578Z,5.90
2022-10-15T19:42:13.340Z,5.85
2022-10-15T19:47:20.449Z,5.80
2022-10-15T19:52:23.988Z,5.68
2022-10-15T19:57:29.459Z,5.65
2022-10-15T20:02:34.396Z,5.60
2022-10-15T20:07:38.179Z,5.53
2022-10-15T20:12:42.912Z,5.44
2022-10-15T20:17:47.727Z,5.36
2022-10-15T20:22:51.037Z,5.34
2022-10-15T20:27:56.516Z,5.31
2022-10-15T20:33:00.217Z,5.28
2022-10-15T20:38:05.347Z,5.26
2022-10-15T20:43:10.166Z,5.26
2022-10-15T20:48:21.577Z,5.21
2022-10-15T20:53:26.085Z,5.16
2022-10-15T20:58:32.129Z,5.06
2022-10-15T21:03:35.561Z,4.98
2022-10-15T21:08:39.676Z,5.02
2022-10-15T21:13:44.695Z,4.96
2022-10-15T21:18:48.491Z,4.97
2022-10-15T21:23:52.069Z,4.90
2022-10-15T21:28:58.736Z,4.95
2022-10-15T21:34:02.134Z,4.94
2022-10-15T21:39:07.872Z,4.92
2022-10-15T21:44:12.707Z,4.90
2022-10-15T21:49:16.962Z,4.81
2022-10-15T21:54:20.289Z,4.85
2022-10-15T21:59:25.935Z,4.87
2022-10-15T22:04:29.435Z,4.84
2022-10-15T22:09:33.492Z,4.80
2022-10-15T22:14:38.286Z,4.77
2022-10-15T22:19:42.397Z,4.68
2022-10-15T22:24:45.717Z,4.51
2022-10-15T22:29:51.147Z,4.49
2022-10-15T22:34:54.504Z,4.32
2022-10-15T22:39:58.608Z,4.15
2022-10-15T22:45:03.469Z,3.98
2022-10-15T22:50:07.712Z,3.82
2022-10-15T22:55:11.210Z,3.74
2022-10-15T23:00:17.763Z,3.69
2022-10-15T23:05:21.868Z,3.64
2022-10-15T23:10:25.982Z,3.57
2022-10-15T23:15:31.395Z,3.51
2022-10-15T23:20:38.199Z,3.46
2022-10-15T23:25:42.228Z,3.41
2022-10-15T23:30:47.809Z,3.45
2022-10-15T23:35:59.605Z,3.48
2022-10-15T23:41:05.437Z,3.49
2022-10-15T23:46:11.222Z,3.48
2022-10-15T23:51:16.309Z,3.41
2022-10-15T23:56:19.925Z,3.36
